Time;durP1;ratioP1;P1;durP2;ratioP2;P2;SDS_P1;SDS_P2;PMS_P1;PMS_P2;Temp;Humidity;BMP_temperature;BMP_pressure;BME280_temperature;BME280_humidity;BME280_pressure;Samples;Min_cycle;Max_cycle;Signal;HPM_P1;HPM_P2
2022/03/06 00:00:20;;;;;;;;;;;;;;;0.92;91.43;100020.22;5052977;28;901;-59
2022/03/06 00:02:46;;;;;;;;;;;;;;;0.80;92.50;100023.66;5052826;28;994;-59
2022/03/06 00:05:13;;;;;;;;;;;;;;;0.76;92.81;100016.50;5052861;28;815;-59
2022/03/06 00:07:40;;;;;;;;;;;;;;;0.71;92.13;100013.97;5052709;28;954;-59
2022/03/06 00:10:06;;;;;;;;;;;;;;;0.78;92.58;100017.75;5052586;28;1881;-60
2022/03/06 00:12:33;;;;;;;;;;;;;;;0.79;92.72;100015.81;5052670;28;804;-59
2022/03/06 00:14:58;;;;;;;;;;;;;;;0.79;92.49;100013.09;5052578;28;827;-59
2022/03/06 00:17:26;;;;;;;;;;;;;;;0.83;92.25;100003.13;5068158;28;1065;-60
2022/03/06 00:19:53;;;;;;;;;;;;;;;0.92;90.97;100003.88;5052582;28;835;-60
2022/03/06 00:22:19;;;;;;;;;;;;;;;1.01;91.41;100006.53;5051202;28;1381;-60
2022/03/06 00:24:46;;;;;;;;;;;;;;;1.11;90.18;100010.75;5052484;28;878;-59
2022/03/06 00:27:12;;;;;;;;;;;;;;;1.16;89.49;100014.09;5052427;28;894;-60
2022/03/06 00:29:39;;;;;;;;;;;;;;;1.11;89.86;100011.59;5052221;28;1909;-60
2022/03/06 00:32:07;;;;;;;;;;;;;;;1.16;90.59;100014.09;5052264;28;814;-60
2022/03/06 00:34:34;;;;;;;;;;;;;;;1.13;90.65;100009.31;5052279;28;878;-60
2022/03/06 00:37:00;;;;;;;;;;;;;;;1.12;90.29;100002.28;5050929;28;1199;-60
2022/03/06 00:39:27;;;;;;;;;;;;;;;1.12;90.20;100004.19;5052150;28;802;-60
2022/03/06 00:41:53;;;;;;;;;;;;;;;1.09;90.92;99996.69;5051535;28;855;-59
2022/03/06 00:44:21;;;;;;;;;;;;;;;1.10;91.57;100001.00;5050419;28;1240;-59
2022/03/06 00:46:48;;;;;;;;;;;;;;;1.10;91.13;99993.63;5052062;28;850;-60
2022/03/06 00:49:14;;;;;;;;;;;;;;;1.16;90.96;100005.13;5052261;28;1910;-60
2022/03/06 00:51:41;;;;;;;;;;;;;;;1.25;89.26;99991.44;5051910;28;863;-59
2022/03/06 00:54:07;;;;;;;;;;;;;;;1.32;88.62;99995.19;5052080;28;867;-60
2022/03/06 00:56:33;;;;;;;;;;;;;;;1.35;88.70;99989.09;5051846;28;837;-58
2022/03/06 00:59:00;;;;;;;;;;;;;;;1.33;89.04;99985.09;5051848;28;894;-60
2022/03/06 01:01:27;;;;;;;;;;;;;;;1.32;88.84;99976.13;5051759;28;828;-60
2022/03/06 01:03:53;;;;;;;;;;;;;;;1.37;89.18;99975.13;5051863;28;847;-60
2022/03/06 01:06:19;;;;;;;;;;;;;;;1.38;88.48;99977.50;5051906;28;831;-60
2022/03/06 01:08:46;;;;;;;;;;;;;;;1.44;88.81;99975.38;5051909;28;1945;-60
2022/03/06 01:11:12;;;;;;;;;;;;;;;1.40;89.22;99966.28;5051807;28;1026;-60
2022/03/06 01:13:39;;;;;;;;;;;;;;;1.46;88.94;99961.44;5052732;28;815;-60
2022/03/06 01:16:05;;;;;;;;;;;;;;;1.52;88.74;99963.59;5051964;28;795;-60
2022/03/06 01:18:32;;;;;;;;;;;;;;;1.61;88.63;99967.00;5052006;28;950;-60
2022/03/06 01:20:58;;;;;;;;;;;;;;;1.63;89.17;99963.94;5051512;28;819;-60
2022/03/06 01:23:25;;;;;;;;;;;;;;;1.66;89.47;99970.66;5051451;28;807;-60
2022/03/06 01:25:51;;;;;;;;;;;;;;;1.65;89.87;99972.59;5051461;28;811;-60
2022/03/06 01:28:18;;;;;;;;;;;;;;;1.60;89.65;99973.59;5051416;28;1956;-60
2022/03/06 01:30:44;;;;;;;;;;;;;;;1.56;89.90;99975.41;5051336;28;878;-59
2022/03/06 01:33:11;;;;;;;;;;;;;;;1.57;90.19;99970.75;5051384;28;854;-60
2022/03/06 01:35:37;;;;;;;;;;;;;;;1.57;90.85;99968.81;5051600;28;894;-60
2022/03/06 01:38:04;;;;;;;;;;;;;;;1.67;90.55;99969.53;5051531;28;799;-60
2022/03/06 01:40:30;;;;;;;;;;;;;;;1.72;90.99;99967.38;5066796;28;972;-60
2022/03/06 01:42:57;;;;;;;;;;;;;;;1.78;91.02;99963.28;5051033;28;1147;-60
2022/03/06 01:45:23;;;;;;;;;;;;;;;1.82;90.05;99969.66;5050064;28;1294;-60
2022/03/06 01:47:51;;;;;;;;;;;;;;;1.81;90.42;99962.63;5051282;28;842;-60
2022/03/06 01:50:20;;;;;;;;;;;;;;;1.79;90.42;99961.34;5051094;28;1969;-60
2022/03/06 01:52:47;;;;;;;;;;;;;;;1.77;90.77;99967.16;5051579;28;803;-60
2022/03/06 01:55:14;;;;;;;;;;;;;;;1.76;90.41;99970.22;5054678;28;870;-60
2022/03/06 01:57:41;;;;;;;;;;;;;;;1.72;90.55;99964.63;5055220;28;811;-60
2022/03/06 02:00:10;;;;;;;;;;;;;;;1.72;89.75;99974.75;5055060;28;846;-59
2022/03/06 02:02:36;;;;;;;;;;;;;;;1.69;89.32;99978.94;5055149;28;866;-60
2022/03/06 02:05:03;;;;;;;;;;;;;;;1.68;89.75;99973.84;5055310;28;827;-59
2022/03/06 02:07:30;;;;;;;;;;;;;;;1.63;90.11;99972.91;5055096;28;830;-59
2022/03/06 02:09:57;;;;;;;;;;;;;;;1.65;90.29;99975.31;5054911;28;1886;-59
2022/03/06 02:12:24;;;;;;;;;;;;;;;1.63;90.24;99974.84;5055073;28;815;-60
2022/03/06 02:14:52;;;;;;;;;;;;;;;1.61;89.94;99982.56;5054850;28;835;-60
2022/03/06 02:17:19;;;;;;;;;;;;;;;1.60;89.38;99983.69;5055158;28;1007;-60
2022/03/06 02:20:15;;;;;;;;;;;;;;;1.57;90.45;99971.53;5054887;28;1034;-60
2022/03/06 02:22:45;;;;;;;;;;;;;;;1.54;89.86;99955.88;5063275;28;1360;-60
2022/03/06 02:25:21;;;;;;;;;;;;;;;1.52;89.78;99974.50;5054712;28;872;-60
2022/03/06 02:27:49;;;;;;;;;;;;;;;1.51;89.72;99969.38;5054714;28;905;-60
2022/03/06 02:30:17;;;;;;;;;;;;;;;1.48;90.15;99961.88;5054584;28;1891;-60
2022/03/06 02:32:47;;;;;;;;;;;;;;;1.43;89.51;99968.34;5054555;28;795;-59
2022/03/06 02:35:14;;;;;;;;;;;;;;;1.38;89.77;99963.88;5054985;28;855;-60
2022/03/06 02:37:41;;;;;;;;;;;;;;;1.40;88.95;99961.63;5054717;28;831;-60
2022/03/06 02:40:09;;;;;;;;;;;;;;;1.41;88.93;99965.16;5054591;28;916;-60
2022/03/06 02:42:36;;;;;;;;;;;;;;;1.34;89.12;99960.25;5054107;28;1205;-59
2022/03/06 02:45:11;;;;;;;;;;;;;;;1.30;89.30;99967.53;5054196;28;1012;-60
2022/03/06 02:47:38;;;;;;;;;;;;;;;1.21;89.49;99964.84;5054235;28;888;-60
2022/03/06 02:50:05;;;;;;;;;;;;;;;1.17;89.49;99969.41;5054098;28;1967;-60
2022/03/06 02:52:31;;;;;;;;;;;;;;;1.08;89.61;99967.88;5054235;28;866;-60
2022/03/06 02:54:58;;;;;;;;;;;;;;;1.00;90.31;99955.94;5054209;28;847;-60
2022/03/06 02:57:25;;;;;;;;;;;;;;;0.93;89.87;99961.91;5054199;28;812;-60
2022/03/06 02:59:52;;;;;;;;;;;;;;;0.92;89.17;99951.38;5054208;28;843;-60
2022/03/06 03:02:18;;;;;;;;;;;;;;;0.91;89.27;99955.22;5053978;28;863;-60
2022/03/06 03:04:44;;;;;;;;;;;;;;;0.89;89.11;99974.59;5053778;28;906;-60
2022/03/06 03:07:11;;;;;;;;;;;;;;;0.91;88.24;99958.75;5053349;28;1165;-61
2022/03/06 03:09:37;;;;;;;;;;;;;;;0.92;88.15;99959.56;5052609;28;1886;-60
2022/03/06 03:12:04;;;;;;;;;;;;;;;0.92;87.81;99952.19;5053792;28;857;-60
2022/03/06 03:14:32;;;;;;;;;;;;;;;0.96;87.15;99950.38;5053855;28;882;-60
2022/03/06 03:17:00;;;;;;;;;;;;;;;1.04;86.83;99951.41;5053837;28;979;-60
2022/03/06 03:19:26;;;;;;;;;;;;;;;1.05;85.63;99963.91;5053674;28;792;-61
2022/03/06 03:21:53;;;;;;;;;;;;;;;1.06;85.82;99960.03;5053768;28;867;-60
2022/03/06 03:24:20;;;;;;;;;;;;;;;1.10;85.86;99958.25;5053676;28;834;-61
2022/03/06 03:26:47;;;;;;;;;;;;;;;1.12;85.51;99957.91;5053605;28;886;-60
2022/03/06 03:29:13;;;;;;;;;;;;;;;1.08;85.31;99960.50;5053296;28;1890;-60
2022/03/06 03:31:39;;;;;;;;;;;;;;;1.07;85.61;99945.31;5053874;28;886;-60
2022/03/06 03:34:05;;;;;;;;;;;;;;;1.05;84.32;99952.22;5053436;28;905;-60
2022/03/06 03:36:32;;;;;;;;;;;;;;;1.04;84.66;99947.91;5053389;28;799;-60
2022/03/06 03:38:58;;;;;;;;;;;;;;;1.06;82.87;99948.38;5053597;28;835;-61
2022/03/06 03:41:24;;;;;;;;;;;;;;;1.10;82.36;99962.91;5053316;28;882;-61
2022/03/06 03:43:52;;;;;;;;;;;;;;;1.07;82.28;99955.38;5053069;28;1399;-61
2022/03/06 03:46:18;;;;;;;;;;;;;;;1.06;82.38;99945.66;5053232;28;875;-60
2022/03/06 03:48:45;;;;;;;;;;;;;;;1.04;81.96;99945.19;5053103;28;1973;-60
2022/03/06 03:51:12;;;;;;;;;;;;;;;1.01;82.16;99941.22;5053123;28;843;-61
2022/03/06 03:53:38;;;;;;;;;;;;;;;0.97;81.45;99943.78;5053171;28;815;-61
2022/03/06 03:56:05;;;;;;;;;;;;;;;1.00;80.76;99950.50;5053269;28;854;-60
2022/03/06 03:58:31;;;;;;;;;;;;;;;1.01;81.71;99949.38;5053094;28;807;-60
2022/03/06 04:00:58;;;;;;;;;;;;;;;0.97;81.26;99941.06;5053195;28;795;-61
2022/03/06 04:03:24;;;;;;;;;;;;;;;0.96;81.66;99939.50;5053509;28;829;-60
2022/03/06 04:05:50;;;;;;;;;;;;;;;0.99;79.88;99949.69;5052880;28;831;-60
2022/03/06 04:08:17;;;;;;;;;;;;;;;0.96;80.81;99944.94;5052796;28;819;-61
2022/03/06 04:10:44;;;;;;;;;;;;;;;0.97;78.78;99946.50;5052837;28;1983;-61
2022/03/06 04:13:09;;;;;;;;;;;;;;;0.97;78.65;99965.56;5052675;28;894;-61
2022/03/06 04:15:36;;;;;;;;;;;;;;;0.96;79.40;99942.22;5052599;28;810;-60
2022/03/06 04:18:02;;;;;;;;;;;;;;;0.96;79.86;99944.94;5052932;28;1013;-60
2022/03/06 04:20:29;;;;;;;;;;;;;;;0.89;79.66;99944.66;5052571;28;846;-61
2022/03/06 04:22:56;;;;;;;;;;;;;;;0.90;80.16;99948.22;5052456;28;867;-60
2022/03/06 04:25:22;;;;;;;;;;;;;;;0.85;79.57;99948.38;5052445;28;835;-61
2022/03/06 04:27:49;;;;;;;;;;;;;;;0.78;80.89;99949.72;5052239;28;946;-61
2022/03/06 04:30:15;;;;;;;;;;;;;;;0.76;80.11;99948.47;5052290;28;1893;-60
2022/03/06 04:32:42;;;;;;;;;;;;;;;0.77;81.17;99944.63;5052238;28;800;-60
2022/03/06 04:35:09;;;;;;;;;;;;;;;0.73;81.10;99949.16;5052358;28;811;-60
2022/03/06 04:37:35;;;;;;;;;;;;;;;0.70;81.93;99955.22;5052195;28;911;-60
2022/03/06 04:40:02;;;;;;;;;;;;;;;0.70;81.03;99947.06;5052151;28;807;-60
2022/03/06 04:42:28;;;;;;;;;;;;;;;0.71;81.92;99952.19;5051950;28;1394;-60
2022/03/06 04:44:55;;;;;;;;;;;;;;;0.71;81.38;99951.41;5052044;28;932;-60
2022/03/06 04:47:22;;;;;;;;;;;;;;;0.73;80.89;99943.69;5052065;28;928;-60
2022/03/06 04:49:48;;;;;;;;;;;;;;;0.75;80.63;99944.16;5051949;28;1981;-60
2022/03/06 04:52:14;;;;;;;;;;;;;;;0.78;80.30;99948.94;5052001;28;842;-60
2022/03/06 04:54:40;;;;;;;;;;;;;;;0.77;81.23;99953.59;5051919;28;800;-60
2022/03/06 04:57:07;;;;;;;;;;;;;;;0.76;80.86;99938.38;5051817;28;799;-60
2022/03/06 04:59:33;;;;;;;;;;;;;;;0.78;81.69;99954.38;5051767;28;958;-61
2022/03/06 05:01:59;;;;;;;;;;;;;;;0.74;81.50;99962.41;5051806;28;853;-60
2022/03/06 05:04:25;;;;;;;;;;;;;;;0.75;81.96;99961.28;5051748;28;838;-61
2022/03/06 05:06:52;;;;;;;;;;;;;;;0.76;81.80;99968.31;5051773;28;816;-60
2022/03/06 05:09:19;;;;;;;;;;;;;;;0.71;82.15;99968.50;5051510;28;1890;-61
2022/03/06 05:11:45;;;;;;;;;;;;;;;0.72;82.66;99967.38;5051615;28;867;-60
2022/03/06 05:14:12;;;;;;;;;;;;;;;0.72;82.74;99972.81;5051659;28;978;-60
2022/03/06 05:16:39;;;;;;;;;;;;;;;0.73;82.28;99973.63;5051544;28;956;-60
2022/03/06 05:19:05;;;;;;;;;;;;;;;0.72;82.39;99982.91;5051580;28;851;-60
2022/03/06 05:21:32;;;;;;;;;;;;;;;0.71;82.35;99982.13;5051593;28;783;-60
2022/03/06 05:23:58;;;;;;;;;;;;;;;0.70;82.88;99985.94;5051412;28;978;-60
2022/03/06 05:26:25;;;;;;;;;;;;;;;0.71;81.24;99986.78;5051646;28;957;-60
2022/03/06 05:28:51;;;;;;;;;;;;;;;0.72;82.31;99986.41;5050880;28;1885;-60
2022/03/06 05:31:19;;;;;;;;;;;;;;;0.71;81.55;99995.72;5051347;28;973;-60
2022/03/06 05:33:45;;;;;;;;;;;;;;;0.73;81.81;99998.91;5051675;28;855;-60
2022/03/06 05:36:11;;;;;;;;;;;;;;;0.75;81.39;100002.09;5051285;28;946;-60
2022/03/06 05:38:37;;;;;;;;;;;;;;;0.77;81.46;99990.88;5051892;28;811;-60
2022/03/06 05:41:04;;;;;;;;;;;;;;;0.83;81.53;100000.41;5051649;28;811;-60
2022/03/06 05:43:31;;;;;;;;;;;;;;;0.87;80.88;99997.84;5051280;28;1296;-60
2022/03/06 05:45:58;;;;;;;;;;;;;;;0.87;79.40;99995.91;5051493;28;886;-60
2022/03/06 05:48:25;;;;;;;;;;;;;;;0.91;79.44;99998.78;5050356;28;1914;-60
2022/03/06 05:50:51;;;;;;;;;;;;;;;0.86;79.23;99991.59;5052036;28;811;-60
2022/03/06 05:53:18;;;;;;;;;;;;;;;0.90;79.68;99984.38;5051380;28;973;-60
2022/03/06 05:55:43;;;;;;;;;;;;;;;0.92;79.46;99978.59;5051207;28;857;-60
2022/03/06 05:58:10;;;;;;;;;;;;;;;0.95;79.65;99977.94;5049942;28;909;-60
2022/03/06 06:00:37;;;;;;;;;;;;;;;0.94;80.02;99962.72;5051192;28;859;-60
2022/03/06 06:03:03;;;;;;;;;;;;;;;0.95;79.77;99981.44;5051036;28;842;-60
2022/03/06 06:05:30;;;;;;;;;;;;;;;0.98;79.86;99986.22;5051101;28;842;-60
2022/03/06 06:07:56;;;;;;;;;;;;;;;1.04;79.72;99984.09;5051100;28;866;-60
2022/03/06 06:10:23;;;;;;;;;;;;;;;1.12;80.04;99988.66;5050886;28;1910;-61
2022/03/06 06:12:50;;;;;;;;;;;;;;;1.21;80.48;99999.47;5051060;28;897;-60
2022/03/06 06:15:16;;;;;;;;;;;;;;;1.22;79.52;99995.63;5051204;28;866;-60
2022/03/06 06:17:43;;;;;;;;;;;;;;;1.32;80.95;99980.78;5051176;28;935;-60
2022/03/06 06:20:10;;;;;;;;;;;;;;;1.33;80.72;99996.78;5050874;28;973;-60
2022/03/06 06:22:37;;;;;;;;;;;;;;;1.44;80.32;99997.16;5051014;28;819;-60
2022/03/06 06:25:04;;;;;;;;;;;;;;;1.51;80.24;100000.13;5050717;28;941;-60
2022/03/06 06:27:30;;;;;;;;;;;;;;;1.61;80.01;99994.25;5050928;28;784;-60
2022/03/06 06:29:57;;;;;;;;;;;;;;;1.78;79.88;100006.09;5050764;28;1898;-60
2022/03/06 06:32:24;;;;;;;;;;;;;;;1.94;79.93;100009.78;5050814;28;959;-60
2022/03/06 06:34:50;;;;;;;;;;;;;;;1.96;78.97;99998.50;5050879;28;906;-60
2022/03/06 06:37:17;;;;;;;;;;;;;;;1.96;77.38;100004.78;5050848;28;866;-60
2022/03/06 06:39:43;;;;;;;;;;;;;;;1.96;78.54;100017.59;5050745;28;887;-60
2022/03/06 06:42:10;;;;;;;;;;;;;;;2.10;78.76;100028.97;5053450;28;1265;-60
2022/03/06 06:44:37;;;;;;;;;;;;;;;2.23;78.50;100014.19;5054426;28;855;-61
2022/03/06 06:47:04;;;;;;;;;;;;;;;2.44;78.08;100025.00;5054289;28;906;-60
2022/03/06 06:49:29;;;;;;;;;;;;;;;2.61;78.77;100015.75;5069685;28;1981;-60
2022/03/06 06:51:56;;;;;;;;;;;;;;;2.61;77.55;100021.22;5054219;28;920;-60
2022/03/06 06:54:22;;;;;;;;;;;;;;;2.59;75.56;100025.44;5054101;28;869;-60
2022/03/06 06:56:49;;;;;;;;;;;;;;;2.69;77.49;100024.97;5054161;28;831;-60
2022/03/06 06:59:15;;;;;;;;;;;;;;;2.72;77.19;100031.69;5052850;28;1599;-60
2022/03/06 07:01:42;;;;;;;;;;;;;;;2.75;77.04;100028.25;5054051;28;1149;-60
2022/03/06 07:04:09;;;;;;;;;;;;;;;2.81;77.87;100024.94;5054061;28;780;-60
2022/03/06 07:06:34;;;;;;;;;;;;;;;2.79;77.28;100029.94;5069431;28;898;-60
2022/03/06 07:09:01;;;;;;;;;;;;;;;2.83;78.91;100027.31;5054223;28;1961;-60
2022/03/06 07:11:28;;;;;;;;;;;;;;;2.81;79.19;100015.97;5053851;28;889;-60
2022/03/06 07:13:54;;;;;;;;;;;;;;;2.79;77.47;100012.78;5053959;28;822;-60
2022/03/06 07:16:21;;;;;;;;;;;;;;;2.79;78.30;100015.50;5053687;28;934;-60
2022/03/06 07:18:47;;;;;;;;;;;;;;;2.92;79.39;100014.31;5053828;28;847;-59
2022/03/06 07:21:13;;;;;;;;;;;;;;;2.95;78.44;100021.84;5053652;28;799;-60
2022/03/06 07:23:40;;;;;;;;;;;;;;;2.92;78.72;100010.81;5053658;28;791;-60
2022/03/06 07:26:06;;;;;;;;;;;;;;;2.97;78.74;100007.84;5053571;28;882;-59
2022/03/06 07:28:32;;;;;;;;;;;;;;;3.00;78.83;100007.94;5053556;28;1890;-60
2022/03/06 07:30:58;;;;;;;;;;;;;;;2.90;77.64;100011.16;5053821;28;831;-59
2022/03/06 07:33:25;;;;;;;;;;;;;;;2.86;78.88;100013.00;5053825;28;799;-60
2022/03/06 07:35:51;;;;;;;;;;;;;;;2.97;77.80;100002.38;5053894;28;862;-60
2022/03/06 07:38:18;;;;;;;;;;;;;;;3.14;76.04;100004.03;5053479;28;938;-60
2022/03/06 07:40:45;;;;;;;;;;;;;;;3.37;77.33;100001.53;5053737;28;941;-60
2022/03/06 07:43:12;;;;;;;;;;;;;;;3.91;77.08;99990.06;5053206;28;1193;-60
2022/03/06 07:45:39;;;;;;;;;;;;;;;4.05;75.04;99992.34;5053864;28;854;-59
2022/03/06 07:48:05;;;;;;;;;;;;;;;4.33;76.11;99996.91;5053525;28;995;-60
2022/03/06 07:50:32;;;;;;;;;;;;;;;4.24;74.14;99997.88;5053103;28;1950;-60
2022/03/06 07:52:58;;;;;;;;;;;;;;;4.22;74.40;99993.91;5052571;28;910;-60
2022/03/06 07:55:25;;;;;;;;;;;;;;;4.13;74.72;99990.59;5053092;28;834;-60
2022/03/06 07:57:52;;;;;;;;;;;;;;;4.16;74.61;99992.59;5052910;28;903;-60
2022/03/06 08:00:18;;;;;;;;;;;;;;;4.24;73.78;99977.94;5052938;28;867;-60
2022/03/06 08:02:45;;;;;;;;;;;;;;;4.42;74.05;99979.16;5052865;28;965;-60
2022/03/06 08:05:12;;;;;;;;;;;;;;;4.21;73.74;99990.41;5052762;28;928;-60
2022/03/06 08:07:38;;;;;;;;;;;;;;;4.07;73.88;99987.31;5052840;28;823;-59
2022/03/06 08:10:06;;;;;;;;;;;;;;;4.17;74.63;99983.25;5052706;28;1886;-58
2022/03/06 08:12:31;;;;;;;;;;;;;;;4.52;75.09;99980.53;5052613;28;863;-60
2022/03/06 08:14:58;;;;;;;;;;;;;;;4.71;71.28;99982.50;5052641;28;890;-60
2022/03/06 08:17:24;;;;;;;;;;;;;;;4.42;72.03;99983.84;5052789;28;982;-60
2022/03/06 08:19:53;;;;;;;;;;;;;;;4.31;73.66;99997.28;5052601;28;791;-60
2022/03/06 08:22:21;;;;;;;;;;;;;;;4.31;73.58;99989.06;5052378;28;973;-60
2022/03/06 08:24:47;;;;;;;;;;;;;;;4.28;73.72;99992.50;5052423;28;898;-60
2022/03/06 08:27:14;;;;;;;;;;;;;;;4.40;73.50;99992.41;5052725;28;823;-60
2022/03/06 08:29:40;;;;;;;;;;;;;;;4.38;73.07;99989.22;5052263;28;1890;-60
2022/03/06 08:32:06;;;;;;;;;;;;;;;4.40;73.39;99992.41;5052359;28;997;-59
2022/03/06 08:34:33;;;;;;;;;;;;;;;4.71;73.29;99993.47;5051070;28;1206;-60
2022/03/06 08:36:58;;;;;;;;;;;;;;;5.04;73.90;99992.22;5052275;28;823;-60
2022/03/06 08:39:25;;;;;;;;;;;;;;;5.08;72.48;99987.59;5052435;28;791;-60
2022/03/06 08:41:52;;;;;;;;;;;;;;;5.17;72.27;99985.44;5052493;28;947;-60
2022/03/06 08:44:19;;;;;;;;;;;;;;;5.22;71.57;99987.06;5051970;28;1275;-60
2022/03/06 08:46:47;;;;;;;;;;;;;;;5.07;71.46;99980.53;5052037;28;1086;-60
2022/03/06 08:49:17;;;;;;;;;;;;;;;4.97;71.99;99975.63;5051903;28;1918;-60
2022/03/06 08:51:44;;;;;;;;;;;;;;;4.77;71.62;99972.09;5051949;28;886;-60
2022/03/06 08:54:10;;;;;;;;;;;;;;;4.75;73.33;99966.16;5051875;28;897;-60
2022/03/06 08:56:36;;;;;;;;;;;;;;;4.77;73.18;99972.09;5051955;28;822;-60
2022/03/06 08:59:03;;;;;;;;;;;;;;;4.51;72.49;99976.22;5051869;28;964;-59
2022/03/06 09:01:29;;;;;;;;;;;;;;;4.29;75.74;99975.75;5051863;28;835;-59
2022/03/06 09:03:56;;;;;;;;;;;;;;;4.57;77.42;99982.22;5051099;28;944;-58
2022/03/06 09:06:22;;;;;;;;;;;;;;;4.87;76.25;99980.53;5051710;28;839;-60
2022/03/06 09:08:49;;;;;;;;;;;;;;;4.61;75.29;99981.16;5051603;28;1890;-59
2022/03/06 09:11:15;;;;;;;;;;;;;;;4.06;77.08;99974.78;5051686;28;773;-60
2022/03/06 09:13:42;;;;;;;;;;;;;;;4.04;78.85;99977.09;5051667;28;969;-60
2022/03/06 09:16:09;;;;;;;;;;;;;;;3.73;78.39;99978.66;5051686;28;882;-60
2022/03/06 09:18:35;;;;;;;;;;;;;;;3.81;79.82;99987.84;5051454;28;1130;-60
2022/03/06 09:21:02;;;;;;;;;;;;;;;3.67;81.22;99983.63;5051593;28;901;-60
2022/03/06 09:23:28;;;;;;;;;;;;;;;3.63;79.55;99984.69;5051534;28;840;-60
2022/03/06 09:25:55;;;;;;;;;;;;;;;3.51;82.14;99982.78;5051493;28;942;-60
2022/03/06 09:28:21;;;;;;;;;;;;;;;3.47;82.21;99990.88;5051464;28;977;-60
2022/03/06 09:30:48;;;;;;;;;;;;;;;3.62;84.12;99981.13;5051373;28;1956;-60
2022/03/06 09:33:14;;;;;;;;;;;;;;;3.81;83.47;99974.97;5051514;28;889;-60
2022/03/06 09:35:41;;;;;;;;;;;;;;;4.03;82.07;99976.31;5051459;28;937;-60
2022/03/06 09:38:07;;;;;;;;;;;;;;;4.02;81.64;99977.44;5051398;28;831;-60
2022/03/06 09:40:34;;;;;;;;;;;;;;;3.82;81.82;99976.56;5051341;28;851;-60
2022/03/06 09:43:01;;;;;;;;;;;;;;;3.59;81.96;99967.38;5050964;28;1388;-60
2022/03/06 09:45:29;;;;;;;;;;;;;;;3.76;83.99;99972.50;5051340;28;870;-60
2022/03/06 09:47:58;;;;;;;;;;;;;;;3.83;82.21;99972.66;5051295;28;921;-59
2022/03/06 09:50:25;;;;;;;;;;;;;;;3.79;85.40;99980.00;5051114;28;1906;-60
2022/03/06 09:52:52;;;;;;;;;;;;;;;3.77;82.28;99979.53;5051206;28;815;-60
2022/03/06 09:55:19;;;;;;;;;;;;;;;3.73;82.65;99965.00;5066687;28;862;-60
2022/03/06 09:57:45;;;;;;;;;;;;;;;3.84;82.58;99965.25;5051216;28;862;-59
2022/03/06 10:00:12;;;;;;;;;;;;;;;3.67;81.94;99971.91;5049939;28;777;-60
2022/03/06 10:02:53;;;;;;;;;;;;;;;3.62;81.92;99966.66;5051102;28;910;-60
2022/03/06 10:05:27;;;;;;;;;;;;;;;4.05;84.27;99963.06;5051177;28;913;-60
2022/03/06 10:08:14;;;;;;;;;;;;;;;4.03;81.06;99959.06;5050981;28;902;-59
2022/03/06 10:10:40;;;;;;;;;;;;;;;4.08;82.79;99954.13;5051085;28;1881;-59
2022/03/06 10:13:07;;;;;;;;;;;;;;;4.18;82.35;99949.25;5051077;28;1078;-59
2022/03/06 10:15:54;;;;;;;;;;;;;;;4.26;83.72;99948.28;5053282;28;867;-60
2022/03/06 10:18:21;;;;;;;;;;;;;;;4.40;80.95;99942.34;5054726;28;1819;-59
2022/03/06 10:20:47;;;;;;;;;;;;;;;4.27;81.02;99944.41;5054746;28;862;-59
2022/03/06 10:23:26;;;;;;;;;;;;;;;4.32;81.45;99941.38;5054839;28;843;-59
2022/03/06 10:26:03;;;;;;;;;;;;;;;4.05;79.85;99934.91;5054722;28;835;-59
2022/03/06 10:28:30;;;;;;;;;;;;;;;4.09;83.04;99928.34;5054578;28;925;-59
2022/03/06 10:31:05;;;;;;;;;;;;;;;4.00;80.49;99921.50;5054553;28;1898;-59
2022/03/06 10:33:31;;;;;;;;;;;;;;;4.07;83.07;99908.00;5054604;28;868;-59
2022/03/06 10:36:01;;;;;;;;;;;;;;;4.12;82.98;99915.13;5054570;28;927;-60
2022/03/06 10:38:30;;;;;;;;;;;;;;;4.12;80.91;99915.13;5054535;28;846;-59
2022/03/06 10:41:09;;;;;;;;;;;;;;;4.29;82.52;99904.59;5054446;28;902;-59
2022/03/06 10:43:35;;;;;;;;;;;;;;;4.52;81.05;99920.31;5054282;28;1383;-59
2022/03/06 10:46:12;;;;;;;;;;;;;;;4.61;81.26;99915.44;5054399;28;886;-59
2022/03/06 10:48:38;;;;;;;;;;;;;;;4.87;81.63;99916.75;5054123;28;1910;-59
2022/03/06 10:51:08;;;;;;;;;;;;;;;4.97;80.73;99916.16;5054546;28;859;-60
2022/03/06 10:53:35;;;;;;;;;;;;;;;4.79;78.86;99921.28;5054288;28;814;-59
2022/03/06 10:56:12;;;;;;;;;;;;;;;4.72;78.24;99910.19;5054156;28;1248;-59
2022/03/06 10:58:40;;;;;;;;;;;;;;;4.48;79.01;99916.69;5054217;28;881;-60
2022/03/06 11:01:06;;;;;;;;;;;;;;;4.26;77.92;99916.22;5052908;28;1326;-59
2022/03/06 11:03:35;;;;;;;;;;;;;;;4.30;80.04;99911.63;5054077;28;953;-59
2022/03/06 11:06:06;;;;;;;;;;;;;;;4.74;80.71;99907.06;5054137;28;831;-59
2022/03/06 11:08:32;;;;;;;;;;;;;;;4.88;77.40;99899.13;5053887;28;882;-59
2022/03/06 11:10:59;;;;;;;;;;;;;;;4.69;78.81;99898.00;5054081;28;1890;-59
2022/03/06 11:13:29;;;;;;;;;;;;;;;4.54;78.47;99895.31;5053728;28;973;-59
2022/03/06 11:15:56;;;;;;;;;;;;;;;4.50;78.06;99889.75;5053799;28;930;-59
2022/03/06 11:18:24;;;;;;;;;;;;;;;4.50;78.38;99881.56;5054282;28;1047;-59
2022/03/06 11:20:52;;;;;;;;;;;;;;;4.52;79.77;99895.69;5053611;28;787;-59
2022/03/06 11:23:19;;;;;;;;;;;;;;;4.70;77.82;99885.09;5053713;28;874;-60
2022/03/06 11:26:10;;;;;;;;;;;;;;;5.05;77.95;99886.94;5053470;28;879;-59
2022/03/06 11:28:56;;;;;;;;;;;;;;;4.91;78.76;99879.25;5054108;28;843;-59
2022/03/06 11:31:22;;;;;;;;;;;;;;;5.25;80.00;99869.31;5053576;28;846;-60
2022/03/06 11:33:57;;;;;;;;;;;;;;;5.36;76.22;99868.72;5053734;28;890;-60
2022/03/06 11:36:25;;;;;;;;;;;;;;;5.58;79.22;99875.34;5053514;28;808;-60
2022/03/06 11:38:53;;;;;;;;;;;;;;;5.49;76.78;99859.13;5053394;28;893;-60
2022/03/06 11:41:20;;;;;;;;;;;;;;;5.29;77.38;99864.69;5053358;28;933;-59
2022/03/06 11:43:50;;;;;;;;;;;;;;;5.21;77.11;99870.41;5053077;28;1241;-59
2022/03/06 11:46:28;;;;;;;;;;;;;;;5.62;78.56;99862.47;5053317;28;826;-59
2022/03/06 11:48:57;;;;;;;;;;;;;;;5.85;71.87;99838.53;5053211;28;1914;-59
2022/03/06 11:51:28;;;;;;;;;;;;;;;5.70;74.77;99844.97;5053296;28;847;-59
2022/03/06 11:54:05;;;;;;;;;;;;;;;6.23;78.36;99845.00;5053013;28;960;-59
2022/03/06 11:56:38;;;;;;;;;;;;;;;6.51;74.37;99846.53;5053038;28;917;-59
2022/03/06 11:59:06;;;;;;;;;;;;;;;5.82;71.40;99850.25;5053383;28;865;-59
2022/03/06 12:01:35;;;;;;;;;;;;;;;5.34;71.45;99849.09;5052879;28;926;-59
2022/03/06 12:04:31;;;;;;;;;;;;;;;5.20;73.78;99841.41;5052984;28;808;-59
2022/03/06 12:07:01;;;;;;;;;;;;;;;5.43;72.37;99844.16;5052302;28;1387;-59
2022/03/06 12:09:54;;;;;;;;;;;;;;;5.23;73.00;99849.69;5052963;28;1886;-59
2022/03/06 12:12:22;;;;;;;;;;;;;;;5.49;75.50;99845.44;5052772;28;1808;-59
2022/03/06 12:14:56;;;;;;;;;;;;;;;5.62;73.52;99840.53;5051775;28;1328;-59
2022/03/06 12:17:32;;;;;;;;;;;;;;;5.37;72.09;99826.44;5052881;28;1030;-59
2022/03/06 12:19:59;;;;;;;;;;;;;;;5.33;75.48;99837.31;5052655;28;890;-59
2022/03/06 12:22:31;;;;;;;;;;;;;;;5.31;73.86;99837.72;5052486;28;847;-59
2022/03/06 12:25:09;;;;;;;;;;;;;;;5.08;73.09;99834.19;5052841;28;819;-59
2022/03/06 12:27:37;;;;;;;;;;;;;;;4.86;72.01;99811.06;5052417;28;894;-59
2022/03/06 12:30:05;;;;;;;;;;;;;;;4.50;72.07;99818.59;5052401;28;1889;-59
2022/03/06 12:32:31;;;;;;;;;;;;;;;4.63;74.92;99816.50;5052322;28;890;-59
2022/03/06 12:35:14;;;;;;;;;;;;;;;5.03;73.79;99810.59;5052327;28;879;-59
2022/03/06 12:37:42;;;;;;;;;;;;;;;5.09;71.99;99813.81;5051839;28;870;-59
2022/03/06 12:40:17;;;;;;;;;;;;;;;5.03;72.12;99816.06;5051978;28;803;-59
2022/03/06 12:42:45;;;;;;;;;;;;;;;4.93;71.57;99811.22;5052025;28;1356;-59
2022/03/06 12:45:14;;;;;;;;;;;;;;;5.02;72.38;99795.31;5052140;28;913;-59
2022/03/06 12:47:42;;;;;;;;;;;;;;;5.17;72.43;99799.09;5051936;28;807;-59
2022/03/06 12:50:12;;;;;;;;;;;;;;;5.32;71.45;99814.63;5051975;28;1918;-59
2022/03/06 12:52:39;;;;;;;;;;;;;;;4.72;73.14;99805.34;5052053;28;847;-58
2022/03/06 12:55:07;;;;;;;;;;;;;;;4.32;74.95;99801.84;5050729;28;895;-58
2022/03/06 12:57:39;;;;;;;;;;;;;;;4.17;76.40;99819.13;5052077;28;803;-59
2022/03/06 13:00:07;;;;;;;;;;;;;;;4.29;76.19;99810.78;5050657;28;1464;-59
2022/03/06 13:02:34;;;;;;;;;;;;;;;4.43;76.31;99811.03;5051947;28;807;-59
2022/03/06 13:05:01;;;;;;;;;;;;;;;4.54;76.51;99800.31;5051838;28;807;-59
2022/03/06 13:07:32;;;;;;;;;;;;;;;4.84;74.63;99802.41;5051754;28;855;-59
2022/03/06 13:10:00;;;;;;;;;;;;;;;4.86;74.66;99802.84;5051705;28;1893;-58
2022/03/06 13:12:35;;;;;;;;;;;;;;;5.06;75.17;99800.88;5050548;28;2842;-59
2022/03/06 13:15:03;;;;;;;;;;;;;;;4.70;74.83;99805.69;5051867;28;795;-59
2022/03/06 13:17:30;;;;;;;;;;;;;;;4.36;76.83;99805.44;5051679;28;993;-59